Time;durP1;ratioP1;P1;durP2;ratioP2;P2;SDS_P1;SDS_P2;PMS_P1;PMS_P2;Temp;Humidity;BMP_temperature;BMP_pressure;BME280_temperature;BME280_humidity;BME280_pressure;Samples;Min_cycle;Max_cycle;Signal;HPM_P1;HPM_P2
2022/05/13 00:00:28;;;;;;;6.33;5.77;;;;;;;22.15;36.87;95378.59;6185507;28;103249;-57
2022/05/13 00:03:30;;;;;;;5.17;4.83;;;;;;;22.19;36.88;95379.63;6178985;28;104499;-57
2022/05/13 00:06:32;;;;;;;5.50;5.03;;;;;;;22.21;36.88;95378.22;6182247;28;104190;-57
2022/05/13 00:12:55;;;;;;;5.17;4.87;;;;;;;22.23;36.45;95376.06;6185844;28;103149;-56
2022/05/13 00:15:57;;;;;;;5.80;5.40;;;;;;;22.24;36.99;95380.28;6186630;28;103986;-56
2022/05/13 00:18:59;;;;;;;5.50;5.10;;;;;;;22.21;36.64;95378.22;6175975;28;102948;-56
2022/05/13 00:22:01;;;;;;;5.50;5.10;;;;;;;22.19;36.67;95379.63;6187184;28;104151;-56
2022/05/13 00:25:03;;;;;;;5.43;5.03;;;;;;;22.13;36.51;95378.91;6187409;28;104142;-57
2022/05/13 00:28:06;;;;;;;5.33;4.93;;;;;;;22.13;36.53;95380.78;6185091;28;103394;-57
2022/05/13 00:31:08;;;;;;;5.27;4.70;;;;;;;22.07;36.83;95377.44;6175860;28;106755;-56
2022/05/13 00:34:10;;;;;;;5.50;5.00;;;;;;;22.06;36.99;95386.53;6185993;28;102965;-57
2022/05/13 00:37:12;;;;;;;5.13;4.83;;;;;;;22.02;37.06;95386.34;6187076;28;103915;-56
2022/05/13 00:40:16;;;;;;;5.83;5.43;;;;;;;22.06;36.70;95389.19;6187483;28;104214;-57
2022/05/13 00:43:39;;;;;;;5.97;5.37;;;;;;;22.02;36.58;95390.88;6176287;28;104014;-56
2022/05/13 00:46:41;;;;;;;4.93;4.57;;;;;;;21.96;36.73;95389.38;6186391;28;104044;-56
2022/05/13 00:49:43;;;;;;;5.10;4.60;;;;;;;21.95;36.86;95393.91;6185528;28;103512;-57
2022/05/13 00:52:48;;;;;;;5.10;4.70;;;;;;;21.94;36.79;95391.56;6174770;28;103271;-57
2022/05/13 00:55:52;;;;;;;5.20;4.90;;;;;;;21.87;37.00;95394.63;6187962;28;104211;-57
2022/05/13 00:59:01;;;;;;;4.77;4.47;;;;;;;21.87;36.73;95391.97;6186669;28;104241;-57
2022/05/13 01:02:03;;;;;;;5.57;5.17;;;;;;;21.89;36.89;95384.47;6186335;28;103001;-56
2022/05/13 01:05:06;;;;;;;4.70;4.30;;;;;;;21.96;36.49;95392.03;6175755;28;104208;-56
2022/05/13 01:08:09;;;;;;;5.03;4.63;;;;;;;21.97;36.43;95396.28;6186643;28;104145;-57
2022/05/13 01:11:18;;;;;;;5.33;4.93;;;;;;;21.95;36.75;95396.59;6185136;28;103594;-57
2022/05/13 01:14:25;;;;;;;5.40;4.90;;;;;;;21.96;36.48;95390.16;6184710;28;104125;-56
2022/05/13 01:20:50;;;;;;;5.53;5.03;;;;;;;21.92;36.88;95385.72;6186198;28;104038;-57
2022/05/13 01:23:54;;;;;;;5.43;5.03;;;;;;;21.91;36.63;95390.28;6185954;28;103964;-56
2022/05/13 01:26:56;;;;;;;5.90;5.27;;;;;;;21.89;37.01;95381.78;6176027;28;105719;-56
2022/05/13 01:29:57;;;;;;;5.13;4.73;;;;;;;21.88;36.75;95384.75;6185282;28;104286;-55
2022/05/13 01:32:59;;;;;;;4.93;4.53;;;;;;;21.93;36.67;95382.78;6186185;28;102683;-55
2022/05/13 01:36:03;;;;;;;5.30;4.90;;;;;;;21.93;36.68;95376.66;6185914;28;103207;-55
2022/05/13 01:39:07;;;;;;;5.53;5.13;;;;;;;21.91;36.77;95373.50;6172236;28;102984;-55
2022/05/13 01:42:08;;;;;;;5.70;5.20;;;;;;;21.89;36.29;95376.47;6186426;28;104186;-55
2022/05/13 01:45:11;;;;;;;5.27;4.97;;;;;;;21.93;36.76;95372.13;6186176;28;103273;-56
2022/05/13 01:48:13;;;;;;;4.80;4.50;;;;;;;21.96;36.55;95371.50;6183687;28;103154;-57
2022/05/13 01:51:16;;;;;;;5.60;5.10;;;;;;;21.89;36.37;95359.69;6176343;28;104214;-56
2022/05/13 01:54:17;;;;;;;6.20;5.17;;;;;;;21.89;36.49;95360.47;6185359;28;104151;-56
2022/05/13 01:57:19;;;;;;;5.13;4.70;;;;;;;21.89;36.17;95360.47;6186280;28;103210;-57
2022/05/13 02:00:22;;;;;;;4.80;4.40;;;;;;;21.91;36.21;95355.63;6179956;28;104741;-56
2022/05/13 02:03:44;;;;;;;5.13;4.73;;;;;;;21.88;36.60;95355.44;6180303;28;103040;-56
2022/05/13 02:06:46;;;;;;;5.00;4.70;;;;;;;21.81;36.77;95353.13;6183926;28;104405;-57
2022/05/13 02:09:48;;;;;;;5.17;4.77;;;;;;;21.69;36.92;95353.63;6168464;28;103110;-56
2022/05/13 02:12:50;;;;;;;5.73;5.23;;;;;;;21.68;36.66;95360.06;6170952;28;103476;-56
2022/05/13 02:15:52;;;;;;;5.33;4.83;;;;;;;21.59;36.96;95361.81;6181167;28;104077;-57
2022/05/13 02:18:54;;;;;;;8.93;5.80;;;;;;;21.53;37.09;95357.66;6183880;28;104029;-57
2022/05/13 02:21:55;;;;;;;5.33;4.93;;;;;;;21.51;37.04;95365.94;6184181;28;102662;-56
2022/05/13 02:24:57;;;;;;;5.33;5.00;;;;;;;21.41;37.60;95374.09;6173870;28;104175;-56
2022/05/13 02:28:00;;;;;;;5.80;5.40;;;;;;;21.43;36.86;95368.47;6176223;28;104254;-56
2022/05/13 02:31:03;;;;;;;5.70;5.30;;;;;;;21.45;37.66;95371.63;6183950;28;102872;-56
2022/05/13 02:34:05;;;;;;;7.53;6.93;;;;;;;21.40;37.65;95377.06;6179026;28;102951;-56
2022/05/13 02:37:06;;;;;;;9.43;8.53;;;;;;;21.32;37.35;95381.16;6176121;28;103550;-56
2022/05/13 02:40:09;;;;;;;9.80;9.00;;;;;;;21.34;37.47;95381.69;6185002;28;104117;-57
2022/05/13 02:43:14;;;;;;;8.57;7.87;;;;;;;21.37;37.45;95381.09;6182676;28;103017;-57
2022/05/13 02:46:28;;;;;;;8.50;7.80;;;;;;;21.38;37.17;95385.34;6166011;28;103163;-56
2022/05/13 02:49:30;;;;;;;10.57;9.67;;;;;;;21.33;37.72;95390.72;6184851;28;103187;-55
2022/05/13 02:52:32;;;;;;;12.13;9.80;;;;;;;21.27;38.04;95388.47;6183009;28;102766;-56
2022/05/13 02:55:34;;;;;;;9.83;9.03;;;;;;;21.24;37.88;95389.84;6187615;28;104867;-56
2022/05/13 02:58:37;;;;;;;9.27;8.47;;;;;;;21.23;37.79;95387.47;6177732;28;104265;-56
2022/05/13 03:01:38;;;;;;;8.63;7.93;;;;;;;21.10;37.70;95396.97;6188163;28;103049;-56
2022/05/13 03:04:40;;;;;;;7.87;7.27;;;;;;;21.13;38.14;95404.38;6188623;28;104196;-56
2022/05/13 03:07:42;;;;;;;7.57;6.93;;;;;;;21.07;38.73;95398.34;6188353;28;104273;-61
2022/05/13 03:10:44;;;;;;;7.37;6.63;;;;;;;21.13;38.53;95397.19;6175788;28;103211;-54
2022/05/13 03:13:48;;;;;;;6.97;6.40;;;;;;;21.18;38.68;95394.47;6186008;28;104138;-54
2022/05/13 03:16:50;;;;;;;6.50;5.90;;;;;;;21.25;38.45;95396.75;6187901;28;104145;-54
2022/05/13 03:19:52;;;;;;;6.73;6.23;;;;;;;21.27;38.37;95394.56;6180782;28;103957;-54
2022/05/13 03:22:53;;;;;;;7.00;6.30;;;;;;;21.34;38.13;95392.34;6182958;28;104048;-58
2022/05/13 03:25:55;;;;;;;7.20;6.63;;;;;;;21.28;38.03;95384.72;6186640;28;103530;-58
2022/05/13 03:28:57;;;;;;;8.63;6.47;;;;;;;21.46;38.33;95395.31;6186845;28;103048;-59
2022/05/13 03:31:59;;;;;;;13.60;12.40;;;;;;;21.61;37.81;95396.13;6177607;28;103930;-59
2022/05/13 03:35:00;;;;;;;12.27;11.37;;;;;;;21.68;37.71;95400.00;6185723;28;103562;-58
2022/05/13 03:38:02;;;;;;;9.17;8.37;;;;;;;21.68;37.53;95400.00;6187158;28;104227;-58
2022/05/13 03:41:04;;;;;;;9.10;8.40;;;;;;;21.69;37.77;95398.91;6186364;28;106464;-59
2022/05/13 03:44:05;;;;;;;7.90;7.30;;;;;;;21.77;37.62;95400.88;6176454;28;103280;-58
2022/05/13 03:47:07;;;;;;;8.47;7.77;;;;;;;21.86;38.79;95411.69;6187506;28;103348;-59
2022/05/13 03:50:10;;;;;;;8.00;7.27;;;;;;;21.91;38.73;95406.25;6180826;28;104370;-59
2022/05/13 03:53:12;;;;;;;8.17;7.47;;;;;;;21.98;38.28;95422.63;6180404;28;104711;-59
2022/05/13 03:56:14;;;;;;;9.77;8.50;;;;;;;22.02;37.89;95423.66;6169307;28;103375;-59
2022/05/13 03:59:16;;;;;;;25.07;22.77;;;;;;;22.07;37.87;95420.09;6180487;28;104197;-59
2022/05/13 04:02:18;;;;;;;9.60;8.77;;;;;;;22.11;37.92;95423.72;6179622;28;104881;-59
2022/05/13 04:08:58;;;;;;;9.10;8.03;;;;;;;22.15;38.19;95437.25;6174053;28;103230;-58
2022/05/13 04:18:44;;;;;;;10.90;9.90;;;;;;;22.13;38.38;95439.44;6169521;28;104095;-58
2022/05/13 04:21:47;;;;;;;12.93;8.83;;;;;;;22.20;38.79;95435.28;6180643;28;103159;-58
2022/05/13 04:24:48;;;;;;;16.40;8.17;;;;;;;22.18;38.29;95436.66;6184404;28;103723;-59
2022/05/13 04:27:50;;;;;;;15.30;7.90;;;;;;;22.18;37.83;95437.47;6180833;28;104305;-58
2022/05/13 04:30:52;;;;;;;11.20;7.97;;;;;;;22.14;38.26;95441.78;6182334;28;102765;-58
2022/05/13 04:33:55;;;;;;;8.77;7.17;;;;;;;22.15;38.03;95439.91;6187786;28;103868;-58
2022/05/13 04:36:57;;;;;;;7.70;7.00;;;;;;;22.14;38.54;95436.47;6186666;28;103059;-58
2022/05/13 04:39:59;;;;;;;8.73;7.43;;;;;;;22.14;38.60;95446.34;6175253;28;104155;-59
2022/05/13 04:43:01;;;;;;;8.33;7.47;;;;;;;22.12;38.54;95454.63;6184934;28;104152;-58
2022/05/13 04:46:02;;;;;;;8.27;7.27;;;;;;;22.13;38.01;95452.75;6186634;28;104099;-58
2022/05/13 04:49:05;;;;;;;10.53;6.60;;;;;;;22.13;38.09;95450.09;6186040;28;104151;-58
2022/05/13 04:52:07;;;;;;;8.83;7.93;;;;;;;22.14;38.34;95449.00;6176256;28;103214;-58
2022/05/13 04:55:09;;;;;;;8.50;7.53;;;;;;;22.15;38.12;95447.91;6187411;28;103079;-58
2022/05/13 04:58:11;;;;;;;7.97;7.33;;;;;;;22.13;38.28;95450.09;6187087;28;102926;-58
2022/05/13 05:01:19;;;;;;;7.67;7.07;;;;;;;22.17;38.24;95454.53;6187817;28;104154;-58
2022/05/13 05:04:21;;;;;;;7.73;7.03;;;;;;;22.18;38.24;95455.31;6176419;28;104257;-58
2022/05/13 05:07:22;;;;;;;9.53;7.00;;;;;;;22.17;37.87;95451.84;6188055;28;104499;-59
2022/05/13 05:10:25;;;;;;;12.83;7.70;;;;;;;22.18;38.18;95455.31;6187215;28;104269;-58
2022/05/13 05:13:33;;;;;;;7.97;7.27;;;;;;;22.18;37.84;95463.31;6180827;28;102817;-58
2022/05/13 05:16:35;;;;;;;7.33;6.63;;;;;;;22.18;37.83;95461.47;6183563;28;103314;-58
2022/05/13 05:19:37;;;;;;;8.40;6.47;;;;;;;22.18;38.08;95452.66;6186303;28;102979;-58
2022/05/13 05:22:38;;;;;;;7.70;7.10;;;;;;;22.15;38.28;95463.91;6187104;28;104091;-58
2022/05/13 05:25:41;;;;;;;7.00;6.40;;;;;;;22.11;38.10;95459.16;6176808;28;103196;-58
2022/05/13 05:28:43;;;;;;;7.70;7.10;;;;;;;22.12;38.50;95467.97;6187108;28;103210;-58
2022/05/13 05:31:45;;;;;;;7.80;7.17;;;;;;;22.15;38.65;95463.91;6187292;28;103900;-58
2022/05/13 05:34:47;;;;;;;8.00;7.30;;;;;;;22.19;38.25;95468.38;6186333;28;103197;-58
2022/05/13 05:37:49;;;;;;;7.33;6.70;;;;;;;22.29;38.13;95464.72;6176469;28;103813;-58
2022/05/13 05:40:51;;;;;;;7.77;6.30;;;;;;;22.41;38.52;95467.69;6185675;28;102954;-60
2022/05/13 05:43:52;;;;;;;8.00;6.83;;;;;;;22.55;38.01;95465.00;6186447;28;103127;-60
2022/05/13 05:46:54;;;;;;;7.60;6.90;;;;;;;22.65;38.56;95464.81;6186636;28;104204;-60
2022/05/13 05:49:57;;;;;;;7.33;6.60;;;;;;;22.72;38.53;95459.09;6176047;28;102935;-60
2022/05/13 05:53:01;;;;;;;7.03;6.43;;;;;;;22.77;38.08;95453.63;6186555;28;104222;-58
2022/05/13 05:59:24;;;;;;;8.50;6.43;;;;;;;22.82;38.04;95461.53;6177176;28;104254;-58
2022/05/13 06:02:27;;;;;;;6.57;5.97;;;;;;;22.85;38.02;95455.56;6186647;28;103883;-59
2022/05/13 06:05:29;;;;;;;7.10;6.50;;;;;;;22.86;38.16;95452.63;6186139;28;103930;-58
2022/05/13 06:08:31;;;;;;;6.97;6.30;;;;;;;23.00;38.31;95463.25;6186151;28;103128;-59
2022/05/13 06:11:33;;;;;;;7.07;6.47;;;;;;;23.08;37.92;95451.88;6174486;28;102972;-58
2022/05/13 06:14:35;;;;;;;8.10;6.77;;;;;;;23.08;37.83;95449.22;6185989;28;103551;-58
2022/05/13 06:17:44;;;;;;;7.57;6.83;;;;;;;23.08;38.01;95448.41;6185551;28;102960;-58
2022/05/13 06:20:46;;;;;;;6.93;6.33;;;;;;;23.08;37.84;95448.41;6185884;28;103209;-58
2022/05/13 06:23:48;;;;;;;6.67;6.07;;;;;;;23.11;38.34;95440.59;6175368;28;104000;-58
2022/05/13 06:26:51;;;;;;;7.63;6.87;;;;;;;23.14;38.22;95439.97;6185175;28;103281;-58
2022/05/13 06:29:53;;;;;;;7.10;6.50;;;;;;;23.16;37.84;95443.13;6187047;28;103723;-58
2022/05/13 06:32:56;;;;;;;7.53;6.80;;;;;;;23.19;37.78;95437.22;6184051;28;104028;-59
2022/05/13 06:35:58;;;;;;;7.07;6.47;;;;;;;23.24;37.93;95439.75;6184921;28;104318;-59
2022/05/13 06:39:00;;;;;;;7.13;6.43;;;;;;;23.28;37.74;95437.25;6189883;28;103226;-58
2022/05/13 06:42:02;;;;;;;6.50;6.00;;;;;;;23.30;37.55;95441.22;6188910;28;103520;-58
2022/05/13 06:45:05;;;;;;;7.00;6.40;;;;;;;23.32;37.78;95426.78;6181072;28;103790;-59
2022/05/13 06:48:07;;;;;;;7.17;6.47;;;;;;;23.36;38.10;95425.09;6189608;28;104081;-60
2022/05/13 06:51:09;;;;;;;6.73;6.13;;;;;;;23.39;38.15;95427.16;6189759;28;104084;-59
2022/05/13 06:54:12;;;;;;;7.23;6.63;;;;;;;23.42;37.71;95426.56;6189546;28;103456;-58
2022/05/13 06:57:13;;;;;;;7.10;6.50;;;;;;;23.44;38.07;95419.81;6178450;28;104184;-58
2022/05/13 07:00:16;;;;;;;7.30;6.60;;;;;;;23.47;37.82;95423.75;6189799;28;103757;-58
2022/05/13 07:03:20;;;;;;;6.60;5.80;;;;;;;23.47;37.71;95413.84;6189668;28;104292;-58
2022/05/13 07:06:22;;;;;;;6.93;6.37;;;;;;;23.51;37.68;95420.16;6189775;28;103052;-58
2022/05/13 07:09:23;;;;;;;6.87;6.13;;;;;;;23.56;37.67;95409.34;6178078;28;103153;-59
2022/05/13 07:12:25;;;;;;;7.83;6.40;;;;;;;23.61;37.99;95403.09;6189216;28;103153;-58
2022/05/13 07:15:27;;;;;;;7.17;6.43;;;;;;;23.63;37.64;95398.22;6189313;28;103981;-58
2022/05/13 07:18:29;;;;;;;6.83;6.30;;;;;;;23.64;38.00;95405.16;6181958;28;103178;-60
2022/05/13 07:21:31;;;;;;;6.20;5.70;;;;;;;23.72;38.18;95404.41;6185929;28;104547;-58
2022/05/13 07:24:32;;;;;;;7.20;6.60;;;;;;;23.76;37.78;95399.25;6188306;28;103144;-58
2022/05/13 07:27:34;;;;;;;7.03;6.30;;;;;;;23.78;37.89;95405.06;6189043;28;103233;-58
2022/05/13 07:30:37;;;;;;;8.00;6.23;;;;;;;23.83;37.72;95402.25;6177213;28;103200;-58
2022/05/13 07:33:39;;;;;;;7.60;6.53;;;;;;;23.86;37.46;95401.66;6189176;28;103968;-57
2022/05/13 07:36:40;;;;;;;7.00;6.40;;;;;;;23.89;37.66;95399.16;6188737;28;103158;-58
2022/05/13 07:43:03;;;;;;;6.80;6.20;;;;;;;23.85;37.50;95395.50;6177018;28;104043;-59
2022/05/13 07:46:06;;;;;;;6.27;5.80;;;;;;;23.84;37.94;95387.78;6188357;28;103012;-58
2022/05/13 07:49:08;;;;;;;6.33;5.83;;;;;;;23.84;37.73;95387.78;6188205;28;104207;-58
2022/05/13 07:52:10;;;;;;;6.50;6.00;;;;;;;23.85;37.40;95387.47;6182822;28;103774;-58
2022/05/13 07:55:15;;;;;;;6.20;5.70;;;;;;;23.81;37.53;95381.19;6182648;28;104110;-58
2022/05/13 07:58:17;;;;;;;6.80;6.10;;;;;;;23.80;37.67;95378.81;6188360;28;103024;-57
2022/05/13 08:01:19;;;;;;;8.77;6.17;;;;;;;23.79;37.42;95380.69;6187946;28;102855;-59
2022/05/13 08:04:21;;;;;;;7.53;6.40;;;;;;;23.74;37.44;95375.50;6178202;28;104139;-58
2022/05/13 08:07:22;;;;;;;7.40;6.47;;;;;;;23.80;37.28;95370.78;6188173;28;103536;-57
2022/05/13 08:10:24;;;;;;;9.03;6.90;;;;;;;23.80;37.56;95365.44;6187687;28;103147;-57
2022/05/13 08:13:30;;;;;;;8.60;7.17;;;;;;;23.79;37.50;95372.69;6187929;28;103083;-58
2022/05/13 08:16:33;;;;;;;6.80;6.13;;;;;;;23.80;37.55;95366.25;6176756;28;104526;-57
2022/05/13 08:19:35;;;;;;;6.80;6.10;;;;;;;23.80;37.60;95368.91;6188445;28;104008;-58
2022/05/13 08:22:37;;;;;;;7.30;6.60;;;;;;;23.80;37.55;95360.91;6187718;28;102898;-59
2022/05/13 08:25:39;;;;;;;8.07;7.30;;;;;;;23.80;37.40;95360.09;6187010;28;103076;-58
2022/05/13 08:28:42;;;;;;;7.63;7.03;;;;;;;23.79;37.51;95353.97;6177587;28;104896;-58
2022/05/13 08:31:44;;;;;;;8.80;6.93;;;;;;;23.78;37.14;95347.06;6187136;28;103020;-58
2022/05/13 08:34:46;;;;;;;6.63;6.13;;;;;;;23.82;37.00;95353.34;6187859;28;102853;-58
2022/05/13 08:38:09;;;;;;;7.50;6.90;;;;;;;23.89;37.38;95350.25;6177843;28;104708;-58
2022/05/13 08:41:10;;;;;;;7.03;6.53;;;;;;;23.91;37.40;95342.69;6186555;28;103083;-59
2022/05/13 08:44:14;;;;;;;7.37;6.70;;;;;;;23.92;37.05;95343.50;6186912;28;103169;-59
2022/05/13 08:47:34;;;;;;;7.77;7.17;;;;;;;23.94;37.05;95335.94;6186806;28;102722;-59
2022/05/13 08:50:40;;;;;;;7.70;7.00;;;;;;;23.94;37.33;95333.28;6176283;28;103216;-58
2022/05/13 08:53:53;;;;;;;7.70;6.90;;;;;;;23.96;37.00;95333.75;6186132;28;104322;-61
2022/05/13 08:57:00;;;;;;;7.30;6.57;;;;;;;23.97;37.37;95329.97;6187342;28;104115;-59
2022/05/13 09:00:08;;;;;;;7.10;6.57;;;;;;;23.97;37.44;95321.97;6182460;28;103186;-58
2022/05/13 09:03:31;;;;;;;8.60;7.90;;;;;;;23.99;37.15;95322.44;6181362;28;103045;-59
2022/05/13 09:06:46;;;;;;;10.80;9.90;;;;;;;23.98;37.08;95318.19;6187490;28;103300;-59
2022/05/13 09:09:51;;;;;;;9.73;8.93;;;;;;;23.98;37.58;95315.50;6186783;28;104081;-59
2022/05/13 09:13:34;;;;;;;8.90;8.20;;;;;;;23.96;37.53;95315.81;6176229;28;103268;-58
2022/05/13 09:16:42;;;;;;;9.60;8.80;;;;;;;23.98;37.56;95304.81;6175769;28;103594;-59
2022/05/13 09:19:46;;;;;;;9.63;8.73;;;;;;;23.96;37.18;95302.47;6186828;28;103182;-58
2022/05/13 09:22:52;;;;;;;9.37;8.37;;;;;;;23.96;37.46;95307.00;6181494;28;103446;-59
2022/05/13 09:26:20;;;;;;;10.40;8.77;;;;;;;23.97;37.22;95297.91;6180557;28;103182;-58
2022/05/13 09:29:22;;;;;;;8.60;7.80;;;;;;;23.96;37.55;95293.66;6186374;28;102753;-58
2022/05/13 09:32:27;;;;;;;8.30;7.50;;;;;;;23.96;37.26;95289.09;6186525;28;104200;-58
2022/05/13 09:35:39;;;;;;;7.90;7.10;;;;;;;23.96;37.81;95285.63;6176394;28;102968;-58
2022/05/13 09:38:46;;;;;;;9.03;8.23;;;;;;;23.95;37.64;95279.50;6186177;28;102922;-58
2022/05/13 09:41:49;;;;;;;9.30;8.50;;;;;;;23.95;37.61;95273.38;6185371;28;103430;-58
2022/05/13 09:45:30;;;;;;;8.40;7.80;;;;;;;23.93;37.38;95259.53;6186299;28;103921;-59
2022/05/13 09:48:35;;;;;;;8.47;7.77;;;;;;;23.94;37.20;95261.88;6179742;28;103083;-58
2022/05/13 09:51:37;;;;;;;8.57;7.77;;;;;;;23.95;37.36;95254.66;6186324;28;103455;-59
2022/05/13 09:54:41;;;;;;;10.00;9.20;;;;;;;23.94;37.65;95250.41;6185467;28;102934;-58
2022/05/13 09:57:43;;;;;;;9.93;8.93;;;;;;;23.91;37.46;95246.47;6175700;28;103984;-59
2022/05/13 10:00:49;;;;;;;8.53;7.83;;;;;;;23.87;37.85;95238.31;6186565;28;104148;-58
2022/05/13 10:04:12;;;;;;;10.17;9.17;;;;;;;23.85;37.57;95232.47;6187901;28;104091;-60
2022/05/13 10:07:16;;;;;;;18.27;16.67;;;;;;;23.83;37.52;95229.31;6190107;28;102979;-58
2022/05/13 10:14:00;;;;;;;16.60;15.20;;;;;;;23.81;38.16;95231.50;6190572;28;104130;-60
2022/05/13 10:17:12;;;;;;;18.70;17.20;;;;;;;23.79;37.72;95228.38;6189511;28;103235;-60
2022/05/13 10:20:28;;;;;;;19.70;18.03;;;;;;;23.79;37.85;95216.91;6180253;28;103157;-60
2022/05/13 10:23:54;;;;;;;20.50;18.70;;;;;;;23.78;37.83;95216.09;6189234;28;103899;-60
2022/05/13 10:26:58;;;;;;;17.77;16.37;;;;;;;23.74;37.93;95204.47;6189883;28;103215;-59
2022/05/13 10:30:06;;;;;;;17.80;16.40;;;;;;;23.75;37.95;95211.41;6189249;28;103091;-59
2022/05/13 10:33:19;;;;;;;18.83;17.30;;;;;;;23.73;37.90;95208.25;6179061;28;104103;-59
2022/05/13 10:36:34;;;;;;;19.40;17.80;;;;;;;23.73;37.91;95205.56;6189700;28;103238;-59
2022/05/13 10:39:51;;;;;;;17.80;16.40;;;;;;;23.71;37.35;95202.44;6189702;28;104181;-59
2022/05/13 10:43:14;;;;;;;17.70;16.20;;;;;;;23.71;37.78;95205.09;6179967;28;102972;-59
2022/05/13 10:46:26;;;;;;;17.60;16.10;;;;;;;23.70;38.06;95198.19;6189359;28;102937;-58
2022/05/13 10:49:46;;;;;;;17.60;16.20;;;;;;;23.70;37.62;95190.19;6189678;28;103376;-59
2022/05/13 10:53:07;;;;;;;16.10;14.70;;;;;;;23.68;37.85;95192.34;6188973;28;103242;-59
2022/05/13 10:56:33;;;;;;;15.20;13.90;;;;;;;23.69;37.69;95182.44;6178499;28;103194;-59
2022/05/13 10:59:53;;;;;;;12.67;11.63;;;;;;;23.68;37.46;95181.66;6189123;28;104030;-59
2022/05/13 11:03:14;;;;;;;12.20;11.30;;;;;;;23.66;37.46;95169.72;6189228;28;103501;-59
2022/05/13 11:06:24;;;;;;;12.10;11.20;;;;;;;23.64;37.66;95164.69;6178211;28;103122;-59
2022/05/13 11:09:46;;;;;;;12.03;11.13;;;;;;;23.68;37.74;95162.94;6188650;28;103145;-59
2022/05/13 11:12:58;;;;;;;13.37;12.20;;;;;;;23.70;37.84;95166.13;6189425;28;104027;-59
2022/05/13 11:16:07;;;;;;;15.17;13.67;;;;;;;23.68;37.60;95159.50;6187782;28;102976;-58
2022/05/13 11:19:34;;;;;;;16.73;15.30;;;;;;;23.67;37.56;95161.38;6182514;28;104422;-59
2022/05/13 11:23:12;;;;;;;31.53;29.03;;;;;;;23.66;37.49;95149.13;6188437;28;103066;-58
2022/05/13 11:26:35;;;;;;;25.57;23.57;;;;;;;23.66;37.90;95143.78;6189076;28;103429;-59
2022/05/13 11:29:51;;;;;;;22.03;20.23;;;;;;;23.64;37.97;95137.97;6177918;28;104010;-58
2022/05/13 11:33:00;;;;;;;19.70;18.20;;;;;;;23.63;37.54;95127.59;6188541;28;103090;-58
2022/05/13 11:36:31;;;;;;;17.63;16.17;;;;;;;23.63;37.59;95120.38;6188574;28;104160;-59
2022/05/13 11:39:54;;;;;;;19.73;18.23;;;;;;;23.63;37.78;95116.91;6180686;28;104113;-58
2022/05/13 11:43:20;;;;;;;26.33;24.13;;;;;;;23.63;37.93;95112.34;6187107;28;103365;-57
2022/05/13 11:46:54;;;;;;;25.77;23.67;;;;;;;23.73;37.82;95111.28;6188590;28;103075;-57
2022/05/13 11:49:57;;;;;;;20.47;18.77;;;;;;;23.75;38.28;95107.19;6187964;28;102953;-57
2022/05/13 11:53:00;;;;;;;20.43;18.53;;;;;;;23.76;37.83;95106.06;6177731;28;104286;-57
2022/05/13 11:56:31;;;;;;;16.47;15.17;;;;;;;23.76;37.56;95110.63;6188426;28;103568;-57
2022/05/13 11:59:53;;;;;;;18.07;16.63;;;;;;;23.77;37.86;95106.84;6188357;28;102752;-57
2022/05/13 12:03:03;;;;;;;15.80;14.50;;;;;;;23.78;38.23;95097.75;6177920;28;103921;-56
2022/05/13 12:06:11;;;;;;;15.67;14.40;;;;;;;23.80;37.98;95090.19;6187737;28;104196;-55
2022/05/13 12:09:14;;;;;;;14.37;13.00;;;;;;;23.77;38.20;95090.81;6187927;28;104298;-55
2022/05/13 12:12:37;;;;;;;15.77;14.57;;;;;;;23.76;38.32;95079.34;6188002;28;104048;-56
2022/05/13 12:15:50;;;;;;;18.50;16.90;;;;;;;23.70;37.96;95080.63;6176984;28;104195;-56
2022/05/13 12:19:07;;;;;;;19.00;17.50;;;;;;;23.66;38.05;95068.19;6187719;28;103294;-56
2022/05/13 12:22:30;;;;;;;18.80;17.30;;;;;;;23.63;37.91;95066.94;6187278;28;102950;-57
2022/05/13 12:25:32;;;;;;;20.23;18.63;;;;;;;23.61;37.93;95058.44;6176855;28;103169;-56
2022/05/13 12:28:55;;;;;;;20.60;19.00;;;;;;;23.61;37.98;95050.44;6186617;28;102989;-56
2022/05/13 12:31:57;;;;;;;24.97;23.07;;;;;;;23.59;38.10;95047.31;6187165;28;102787;-56
2022/05/13 12:38:21;;;;;;;31.37;28.87;;;;;;;23.58;37.66;95037.72;6173259;28;104131;-57
2022/05/13 12:41:24;;;;;;;32.50;29.90;;;;;;;23.66;38.73;95031.56;6173955;28;103139;-57
2022/05/13 12:44:39;;;;;;;36.27;33.47;;;;;;;23.66;38.34;95026.22;6181636;28;104319;-57
2022/05/13 12:48:13;;;;;;;34.60;31.70;;;;;;;23.69;38.91;95020.28;6172661;28;105395;-57
2022/05/13 12:51:19;;;;;;;33.10;30.30;;;;;;;23.68;38.82;95018.69;6172541;28;104026;-56
2022/05/13 12:54:24;;;;;;;33.27;30.60;;;;;;;23.66;38.48;95014.75;6179018;28;103072;-57
2022/05/13 12:57:39;;;;;;;35.20;32.17;;;;;;;23.65;38.73;95013.97;6168143;28;104109;-57
2022/05/13 13:00:44;;;;;;;37.23;34.20;;;;;;;23.64;38.35;95012.41;6169378;28;104448;-56
2022/05/13 13:03:49;;;;;;;35.10;32.10;;;;;;;23.66;38.46;95009.41;6178367;28;104469;-56
2022/05/13 13:06:52;;;;;;;34.90;32.00;;;;;;;23.65;38.48;95003.28;6181083;28;104334;-57
2022/05/13 13:09:54;;;;;;;33.43;30.67;;;;;;;23.63;38.51;94994.81;6173806;28;104137;-56
2022/05/13 13:13:17;;;;;;;31.57;29.17;;;;;;;23.65;38.58;94994.47;6171619;28;105047;-57
2022/05/13 13:16:33;;;;;;;31.97;29.27;;;;;;;23.66;38.53;94988.03;6180865;28;103096;-56
2022/05/13 13:19:36;;;;;;;32.10;29.50;;;;;;;23.65;38.35;94981.13;6178738;28;103105;-56
2022/05/13 13:22:42;;;;;;;33.03;30.00;;;;;;;23.65;38.33;94978.47;6167741;28;103903;-56
2022/05/13 13:25:48;;;;;;;33.27;30.47;;;;;;;23.65;38.20;94970.44;6178879;28;103449;-57
2022/05/13 13:28:53;;;;;;;33.87;31.13;;;;;;;23.64;37.98;94968.88;6180587;28;104017;-56
2022/05/13 13:32:00;;;;;;;32.40;29.90;;;;;;;23.64;38.35;94964.31;6175918;28;103513;-56
2022/05/13 13:35:03;;;;;;;32.13;29.63;;;;;;;23.65;38.33;94965.88;6170244;28;103546;-56
2022/05/13 13:38:08;;;;;;;32.37;29.87;;;;;;;23.67;38.20;94953.00;6178138;28;102964;-57
2022/05/13 13:41:21;;;;;;;35.87;32.90;;;;;;;23.69;38.44;94945.47;6185947;28;103191;-56
2022/05/13 13:44:22;;;;;;;34.57;31.90;;;;;;;23.71;38.75;94943.25;6169773;28;103951;-57
2022/05/13 13:47:29;;;;;;;35.77;32.87;;;;;;;23.70;38.71;94936.34;6185084;28;103857;-61
2022/05/13 13:50:32;;;;;;;34.10;31.50;;;;;;;23.71;38.82;94934.47;6177092;28;102988;-57
2022/05/13 13:53:39;;;;;;;34.13;31.53;;;;;;;23.71;38.70;94937.91;6176396;28;103952;-56
2022/05/13 13:56:58;;;;;;;34.67;31.77;;;;;;;23.72;38.79;94934.13;6172190;28;105083;-56
2022/05/13 14:00:12;;;;;;;33.97;31.27;;;;;;;23.71;38.50;94929.91;6180039;28;104546;-56
2022/05/13 14:03:20;;;;;;;34.93;32.03;;;;;;;23.71;38.84;94924.56;6178046;28;103456;-57
2022/05/13 14:06:23;;;;;;;33.67;30.97;;;;;;;23.73;38.48;94922.34;6173820;28;104847;-57
2022/05/13 14:09:33;;;;;;;35.33;32.43;;;;;;;23.73;38.74;94919.66;6158491;28;104744;-56
2022/05/13 14:12:37;;;;;;;35.37;32.50;;;;;;;23.73;38.70;94913.53;6164711;28;104527;-57
2022/05/13 14:15:43;;;;;;;33.87;31.27;;;;;;;23.74;38.51;94915.13;6169093;28;103793;-56
2022/05/13 14:18:46;;;;;;;34.67;31.87;;;;;;;23.73;38.88;94911.66;6167535;28;104270;-56
2022/05/13 14:21:51;;;;;;;32.83;30.23;;;;;;;23.73;38.82;94908.97;6180710;28;103289;-57
2022/05/13 14:25:12;;;;;;;33.40;30.60;;;;;;;23.75;39.12;94911.34;6180028;28;103988;-57
2022/05/13 14:28:19;;;;;;;30.57;28.07;;;;;;;23.77;38.53;94901.91;6178669;28;104258;-54
2022/05/13 14:31:36;;;;;;;27.60;25.10;;;;;;;23.78;38.90;94910.69;6163890;28;102872;-53
2022/05/13 14:34:39;;;;;;;26.53;24.23;;;;;;;23.79;38.24;94907.69;6181088;28;103290;-54
2022/05/13 14:37:54;;;;;;;25.00;22.90;;;;;;;23.81;38.09;94905.47;6180223;28;103277;-54
2022/05/13 14:40:59;;;;;;;25.97;23.77;;;;;;;23.81;38.01;94905.47;6167564;28;103542;-54
2022/05/13 14:44:01;;;;;;;23.53;21.63;;;;;;;23.82;38.03;94901.72;6171020;28;104207;-54
2022/05/13 14:47:07;;;;;;;22.50;20.60;;;;;;;23.84;38.27;94899.50;6187278;28;103240;-54
2022/05/13 14:50:12;;;;;;;22.33;20.53;;;;;;;23.85;38.77;94898.38;6178322;28;103259;-54